<?xml version="1.0" encoding="UTF-8" ?>
<gpx version="1.1" xmlns:xsi="http://www.w3.org/2001/XMLSchema-instance" 
    xmlns="http://www.topografix.com/GPX/1/1" 
    xsi:schemaLocation="http://www.topografix.com/GPX/1/1 http://www.topografix.com/GPX/1/1/gpx.xsd" 
    creator="Openrunner - https://www.openrunner.com" >	<trk>
						<name>Station_Pedestre_G-Vigny_2.7km_D250--20897185</name>
						<trkseg>
					<trkpt lat="46.238160" lon="6.475140">
						<ele>1157</ele>
						<time>2025-03-15T17:17:19Z</time>
					</trkpt>
					<trkpt lat="46.238160" lon="6.475160">
						<ele>1156</ele>
						<time>2025-03-15T17:17:21Z</time>
					</trkpt>
					<trkpt lat="46.237930" lon="6.475310">
						<ele>1157</ele>
						<time>2025-03-15T17:17:55Z</time>
					</trkpt>
					<trkpt lat="46.237620" lon="6.475350">
						<ele>1160</ele>
						<time>2025-03-15T17:18:36Z</time>
					</trkpt>
					<trkpt lat="46.237260" lon="6.475530">
						<ele>1159</ele>
						<time>2025-03-15T17:19:27Z</time>
					</trkpt>
					<trkpt lat="46.236930" lon="6.475650">
						<ele>1158</ele>
						<time>2025-03-15T17:20:12Z</time>
					</trkpt>
					<trkpt lat="46.236870" lon="6.474980">
						<ele>1158</ele>
						<time>2025-03-15T17:21:15Z</time>
					</trkpt>
					<trkpt lat="46.236870" lon="6.474840">
						<ele>1157</ele>
						<time>2025-03-15T17:21:28Z</time>
					</trkpt>
					<trkpt lat="46.236860" lon="6.474790">
						<ele>1156</ele>
						<time>2025-03-15T17:21:32Z</time>
					</trkpt>
					<trkpt lat="46.236860" lon="6.474780">
						<ele>1156</ele>
						<time>2025-03-15T17:21:33Z</time>
					</trkpt>
					<trkpt lat="46.236900" lon="6.474490">
						<ele>1155</ele>
						<time>2025-03-15T17:22:01Z</time>
					</trkpt>
					<trkpt lat="46.236920" lon="6.473980">
						<ele>1150</ele>
						<time>2025-03-15T17:22:48Z</time>
					</trkpt>
					<trkpt lat="46.236800" lon="6.473490">
						<ele>1142</ele>
						<time>2025-03-15T17:23:36Z</time>
					</trkpt>
					<trkpt lat="46.236630" lon="6.473400">
						<ele>1138</ele>
						<time>2025-03-15T17:24:00Z</time>
					</trkpt>
					<trkpt lat="46.236780" lon="6.473280">
						<ele>1138</ele>
						<time>2025-03-15T17:24:23Z</time>
					</trkpt>
					<trkpt lat="46.236890" lon="6.473020">
						<ele>1132</ele>
						<time>2025-03-15T17:24:51Z</time>
					</trkpt>
					<trkpt lat="46.236630" lon="6.472770">
						<ele>1124</ele>
						<time>2025-03-15T17:25:33Z</time>
					</trkpt>
					<trkpt lat="46.236320" lon="6.472720">
						<ele>1118</ele>
						<time>2025-03-15T17:26:14Z</time>
					</trkpt>
					<trkpt lat="46.235880" lon="6.472780">
						<ele>1112</ele>
						<time>2025-03-15T17:27:13Z</time>
					</trkpt>
					<trkpt lat="46.235490" lon="6.473090">
						<ele>1109</ele>
						<time>2025-03-15T17:28:13Z</time>
					</trkpt>
					<trkpt lat="46.235080" lon="6.473220">
						<ele>1105</ele>
						<time>2025-03-15T17:29:09Z</time>
					</trkpt>
					<trkpt lat="46.235080" lon="6.473200">
						<ele>1104</ele>
						<time>2025-03-15T17:29:10Z</time>
					</trkpt>
					<trkpt lat="46.235260" lon="6.472160">
						<ele>1083</ele>
						<time>2025-03-15T17:30:49Z</time>
					</trkpt>
					<trkpt lat="46.235460" lon="6.471440">
						<ele>1069</ele>
						<time>2025-03-15T17:32:01Z</time>
					</trkpt>
					<trkpt lat="46.235190" lon="6.471410">
						<ele>1062</ele>
						<time>2025-03-15T17:32:37Z</time>
					</trkpt>
					<trkpt lat="46.235040" lon="6.471220">
						<ele>1054</ele>
						<time>2025-03-15T17:33:04Z</time>
					</trkpt>
					<trkpt lat="46.235380" lon="6.470570">
						<ele>1043</ele>
						<time>2025-03-15T17:34:19Z</time>
					</trkpt>
					<trkpt lat="46.235420" lon="6.470190">
						<ele>1033</ele>
						<time>2025-03-15T17:34:54Z</time>
					</trkpt>
					<trkpt lat="46.235600" lon="6.469640">
						<ele>1021</ele>
						<time>2025-03-15T17:35:51Z</time>
					</trkpt>
					<trkpt lat="46.235920" lon="6.469060">
						<ele>1007</ele>
						<time>2025-03-15T17:36:59Z</time>
					</trkpt>
					<trkpt lat="46.236410" lon="6.468380">
						<ele>989</ele>
						<time>2025-03-15T17:38:30Z</time>
					</trkpt>
					<trkpt lat="46.236550" lon="6.467970">
						<ele>979</ele>
						<time>2025-03-15T17:39:12Z</time>
					</trkpt>
					<trkpt lat="46.236590" lon="6.467130">
						<ele>963</ele>
						<time>2025-03-15T17:40:30Z</time>
					</trkpt>
					<trkpt lat="46.236490" lon="6.466570">
						<ele>955</ele>
						<time>2025-03-15T17:41:23Z</time>
					</trkpt>
					<trkpt lat="46.236450" lon="6.466100">
						<ele>952</ele>
						<time>2025-03-15T17:42:07Z</time>
					</trkpt>
					<trkpt lat="46.236320" lon="6.466010">
						<ele>951</ele>
						<time>2025-03-15T17:42:26Z</time>
					</trkpt>
					<trkpt lat="46.236300" lon="6.466000">
						<ele>950</ele>
						<time>2025-03-15T17:42:29Z</time>
					</trkpt>
					<trkpt lat="46.236300" lon="6.465670">
						<ele>948</ele>
						<time>2025-03-15T17:42:59Z</time>
					</trkpt>
					<trkpt lat="46.236240" lon="6.465380">
						<ele>945</ele>
						<time>2025-03-15T17:43:27Z</time>
					</trkpt>
					<trkpt lat="46.236200" lon="6.465020">
						<ele>942</ele>
						<time>2025-03-15T17:44:01Z</time>
					</trkpt>
					<trkpt lat="46.236200" lon="6.464640">
						<ele>940</ele>
						<time>2025-03-15T17:44:36Z</time>
					</trkpt>
					<trkpt lat="46.236210" lon="6.464550">
						<ele>939</ele>
						<time>2025-03-15T17:44:44Z</time>
					</trkpt>
					<trkpt lat="46.236230" lon="6.464480">
						<ele>939</ele>
						<time>2025-03-15T17:44:51Z</time>
					</trkpt>
					<trkpt lat="46.236240" lon="6.464380">
						<ele>939</ele>
						<time>2025-03-15T17:45:01Z</time>
					</trkpt>
					<trkpt lat="46.236240" lon="6.464210">
						<ele>938</ele>
						<time>2025-03-15T17:45:16Z</time>
					</trkpt>
					<trkpt lat="46.236260" lon="6.464210">
						<ele>938</ele>
						<time>2025-03-15T17:45:19Z</time>
					</trkpt>
					<trkpt lat="46.236360" lon="6.464220">
						<ele>939</ele>
						<time>2025-03-15T17:45:32Z</time>
					</trkpt>
					<trkpt lat="46.236430" lon="6.464250">
						<ele>940</ele>
						<time>2025-03-15T17:45:42Z</time>
					</trkpt>
					<trkpt lat="46.236590" lon="6.464350">
						<ele>941</ele>
						<time>2025-03-15T17:46:05Z</time>
					</trkpt>
					<trkpt lat="46.236710" lon="6.464490">
						<ele>943</ele>
						<time>2025-03-15T17:46:26Z</time>
					</trkpt>
					<trkpt lat="46.237010" lon="6.464790">
						<ele>944</ele>
						<time>2025-03-15T17:47:15Z</time>
					</trkpt>
					<trkpt lat="46.237260" lon="6.465080">
						<ele>945</ele>
						<time>2025-03-15T17:47:57Z</time>
					</trkpt>
					<trkpt lat="46.237590" lon="6.465420">
						<ele>945</ele>
						<time>2025-03-15T17:48:52Z</time>
					</trkpt>
					<trkpt lat="46.237940" lon="6.465830">
						<ele>945</ele>
						<time>2025-03-15T17:49:52Z</time>
					</trkpt>
					<trkpt lat="46.238310" lon="6.466310">
						<ele>947</ele>
						<time>2025-03-15T17:50:58Z</time>
					</trkpt>
					<trkpt lat="46.238510" lon="6.466530">
						<ele>947</ele>
						<time>2025-03-15T17:51:32Z</time>
					</trkpt>
					<trkpt lat="46.238830" lon="6.466840">
						<ele>948</ele>
						<time>2025-03-15T17:52:23Z</time>
					</trkpt>
					<trkpt lat="46.239260" lon="6.467390">
						<ele>952</ele>
						<time>2025-03-15T17:53:40Z</time>
					</trkpt>
					<trkpt lat="46.239340" lon="6.467460">
						<ele>952</ele>
						<time>2025-03-15T17:53:52Z</time>
					</trkpt>
					<trkpt lat="46.239510" lon="6.467620">
						<ele>953</ele>
						<time>2025-03-15T17:54:19Z</time>
					</trkpt>
					<trkpt lat="46.239900" lon="6.467940">
						<ele>954</ele>
						<time>2025-03-15T17:55:19Z</time>
					</trkpt>
					<trkpt lat="46.240240" lon="6.468250">
						<ele>956</ele>
						<time>2025-03-15T17:56:13Z</time>
					</trkpt>
					<trkpt lat="46.240680" lon="6.468610">
						<ele>958</ele>
						<time>2025-03-15T17:57:20Z</time>
					</trkpt>
					<trkpt lat="46.241670" lon="6.469480">
						<ele>969</ele>
						<time>2025-03-15T17:59:55Z</time>
					</trkpt>
					<trkpt lat="46.241760" lon="6.469540">
						<ele>970</ele>
						<time>2025-03-15T18:00:08Z</time>
					</trkpt>
					<trkpt lat="46.242090" lon="6.469690">
						<ele>973</ele>
						<time>2025-03-15T18:00:54Z</time>
					</trkpt>
					<trkpt lat="46.242350" lon="6.469590">
						<ele>971</ele>
						<time>2025-03-15T18:01:30Z</time>
					</trkpt>
					<trkpt lat="46.242530" lon="6.468910">
						<ele>959</ele>
						<time>2025-03-15T18:02:37Z</time>
					</trkpt>
					<trkpt lat="46.242680" lon="6.468570">
						<ele>953</ele>
						<time>2025-03-15T18:03:14Z</time>
					</trkpt>
					<trkpt lat="46.242930" lon="6.468360">
						<ele>948</ele>
						<time>2025-03-15T18:03:53Z</time>
					</trkpt>
					<trkpt lat="46.243410" lon="6.468080">
						<ele>941</ele>
						<time>2025-03-15T18:05:02Z</time>
					</trkpt>
					<trkpt lat="46.243450" lon="6.468170">
						<ele>941</ele>
						<time>2025-03-15T18:05:12Z</time>
					</trkpt>
					<trkpt lat="46.243520" lon="6.468280">
						<ele>942</ele>
						<time>2025-03-15T18:05:26Z</time>
					</trkpt>
					<trkpt lat="46.243610" lon="6.468350">
						<ele>942</ele>
						<time>2025-03-15T18:05:39Z</time>
					</trkpt>
					<trkpt lat="46.244370" lon="6.468870">
						<ele>938</ele>
						<time>2025-03-15T18:07:31Z</time>
					</trkpt>
					<trkpt lat="46.244450" lon="6.468940">
						<ele>938</ele>
						<time>2025-03-15T18:07:44Z</time>
					</trkpt>
					<trkpt lat="46.244540" lon="6.469050">
						<ele>938</ele>
						<time>2025-03-15T18:08:00Z</time>
					</trkpt>
					<trkpt lat="46.244630" lon="6.469220">
						<ele>938</ele>
						<time>2025-03-15T18:08:19Z</time>
					</trkpt>
					<trkpt lat="46.244660" lon="6.469290">
						<ele>938</ele>
						<time>2025-03-15T18:08:27Z</time>
					</trkpt>
					<trkpt lat="46.244780" lon="6.469650">
						<ele>940</ele>
						<time>2025-03-15T18:09:04Z</time>
					</trkpt>
					<trkpt lat="46.244790" lon="6.469780">
						<ele>941</ele>
						<time>2025-03-15T18:09:16Z</time>
					</trkpt>
					<trkpt lat="46.244790" lon="6.470070">
						<ele>943</ele>
						<time>2025-03-15T18:09:43Z</time>
					</trkpt>
					<trkpt lat="46.244810" lon="6.470190">
						<ele>943</ele>
						<time>2025-03-15T18:09:54Z</time>
					</trkpt>
					<trkpt lat="46.244840" lon="6.470390">
						<ele>943</ele>
						<time>2025-03-15T18:10:13Z</time>
					</trkpt>
					<trkpt lat="46.244880" lon="6.470550">
						<ele>943</ele>
						<time>2025-03-15T18:10:29Z</time>
					</trkpt>
					<trkpt lat="46.244920" lon="6.470650">
						<ele>943</ele>
						<time>2025-03-15T18:10:39Z</time>
					</trkpt>
					<trkpt lat="46.245000" lon="6.470800">
						<ele>942</ele>
						<time>2025-03-15T18:10:57Z</time>
					</trkpt>
					<trkpt lat="46.245120" lon="6.471000">
						<ele>941</ele>
						<time>2025-03-15T18:11:21Z</time>
					</trkpt>
					<trkpt lat="46.245180" lon="6.471080">
						<ele>941</ele>
						<time>2025-03-15T18:11:32Z</time>
					</trkpt>
					<trkpt lat="46.245160" lon="6.471100">
						<ele>941</ele>
						<time>2025-03-15T18:11:35Z</time>
					</trkpt>
					</trkseg>
				</trk>
			</gpx>